Felix-Klein-Gymnasium, Gttingen, 150m NN
Wetterdaten: aktuell Donnerstag, 24.05.2018 07:45
Datum Zeit Temp. A. Feuchte A. Luftdruck Regen Wind Richtung Richtung Sonnenschein Taupunkt Windchill Windben
24.05.2018 07:45 17,3 C 66 % 1017,9 hPa 0,0 mm 3,7 km/h (1 Bft) N 350 0 min 10,9 C 17,3 C 8,0 km/h (2 Bft)
24.05.2018 07:30 17,4 C 66 % 1017,8 hPa 0,0 mm 3,0 km/h (1 Bft) N-NW 328 0 min 11,0 C 17,4 C 8,0 km/h (2 Bft)
24.05.2018 07:15 17,7 C 64 % 1017,9 hPa 0,0 mm 1,1 km/h (1 Bft) W-NW 296 0 min 10,8 C 17,7 C 4,8 km/h (1 Bft)
24.05.2018 07:00 17,7 C 63 % 1017,8 hPa 0,0 mm 2,8 km/h (1 Bft) NO 47 0 min 10,6 C 17,7 C 11,3 km/h (2 Bft)
24.05.2018 06:45 17,6 C 63 % 1017,9 hPa 0,0 mm 3,5 km/h (1 Bft) O-NO 78 0 min 10,5 C 17,6 C 11,3 km/h (2 Bft)
24.05.2018 06:30 17,3 C 64 % 1017,9 hPa 0,0 mm 1,9 km/h (1 Bft) N-NW 341 0 min 10,4 C 17,3 C 11,3 km/h (2 Bft)
24.05.2018 06:15 17,1 C 64 % 1017,7 hPa 0,0 mm 0,0 km/h (0 Bft) N 349 0 min 10,2 C 17,1 C 1,6 km/h (1 Bft)
24.05.2018 06:00 17,1 C 63 % 1017,8 hPa 0,0 mm 0,8 km/h (0 Bft) O-NO 64 0 min 10,0 C 17,1 C 6,4 km/h (2 Bft)
24.05.2018 05:45 17,0 C 63 % 1017,6 hPa 0,0 mm 1,2 km/h (1 Bft) N-NW 327 0 min 9,9 C 17,0 C 11,3 km/h (2 Bft)
24.05.2018 05:30 17,0 C 62 % 1017,7 hPa 0,0 mm 1,9 km/h (1 Bft) N-NW 328 0 min 9,7 C 17,0 C 6,4 km/h (2 Bft)
24.05.2018 05:15 17,1 C 61 % 1017,7 hPa 0,0 mm 0,6 km/h (0 Bft) N-NW 332 0 min 9,5 C 17,1 C 6,4 km/h (2 Bft)
24.05.2018 05:00 17,2 C 60 % 1017,7 hPa 0,0 mm 1,6 km/h (1 Bft) N-NW 332 0 min 9,4 C 17,2 C 6,4 km/h (2 Bft)
24.05.2018 04:45 17,3 C 60 % 1017,7 hPa 0,0 mm 4,6 km/h (1 Bft) N-NW 348 0 min 9,5 C 17,3 C 8,0 km/h (2 Bft)
24.05.2018 04:30 17,4 C 59 % 1017,8 hPa 0,0 mm 4,8 km/h (1 Bft) N-NW 342 0 min 9,3 C 17,4 C 9,7 km/h (2 Bft)
24.05.2018 04:15 17,5 C 57 % 1017,9 hPa 0,0 mm 3,8 km/h (1 Bft) N-NW 341 0 min 8,9 C 17,5 C 8,0 km/h (2 Bft)
24.05.2018 04:00 17,7 C 56 % 1017,9 hPa 0,0 mm 4,1 km/h (1 Bft) NW 311 0 min 8,8 C 17,7 C 11,3 km/h (2 Bft)
24.05.2018 03:45 18,1 C 55 % 1017,9 hPa 0,0 mm 6,2 km/h (2 Bft) W-NW 298 0 min 8,9 C 18,1 C 12,9 km/h (3 Bft)
24.05.2018 03:30 19,1 C 50 % 1017,9 hPa 0,0 mm 1,0 km/h (0 Bft) N-NW 343 0 min 8,4 C 19,1 C 8,0 km/h (2 Bft)
24.05.2018 03:15 19,2 C 49 % 1017,9 hPa 0,0 mm 4,6 km/h (1 Bft) NO 34 0 min 8,2 C 19,2 C 14,5 km/h (3 Bft)
24.05.2018 03:00 19,3 C 48 % 1017,9 hPa 0,0 mm 6,1 km/h (2 Bft) O 101 0 min 8,0 C 19,3 C 19,3 km/h (3 Bft)
24.05.2018 02:45 19,4 C 48 % 1017,9 hPa 0,0 mm 8,2 km/h (2 Bft) O-NO 78 0 min 8,1 C 19,4 C 19,3 km/h (3 Bft)
24.05.2018 02:30 19,4 C 48 % 1017,8 hPa 0,0 mm 7,8 km/h (2 Bft) O-SO 110 0 min 8,1 C 19,4 C 20,9 km/h (4 Bft)
24.05.2018 02:15 19,6 C 48 % 1018,0 hPa 0,0 mm 7,4 km/h (2 Bft) O-SO 111 0 min 8,3 C 19,6 C 14,5 km/h (3 Bft)
24.05.2018 02:00 19,6 C 48 % 1018,1 hPa 0,0 mm 5,9 km/h (2 Bft) SO 134 0 min 8,3 C 19,6 C 17,7 km/h (3 Bft)
24.05.2018 01:45 19,4 C 49 % 1018,1 hPa 0,0 mm 4,8 km/h (1 Bft) O 82 0 min 8,4 C 19,4 C 11,3 km/h (2 Bft)
24.05.2018 01:43 19,3 C 49 % 1018,1 hPa 0,0 mm 4,1 km/h (1 Bft) O-NO 72 0 min 8,3 C 19,3 C 12,9 km/h (3 Bft)
24.05.2018 01:30 19,0 C 52 % 1018,0 hPa 0,0 mm 5,1 km/h (1 Bft) NO 49 0 min 8,9 C 19,0 C 11,3 km/h (2 Bft)
24.05.2018 01:15 18,6 C 55 % 1018,0 hPa 0,0 mm 7,0 km/h (2 Bft) N 11 0 min 9,4 C 18,6 C 11,3 km/h (2 Bft)
24.05.2018 01:00 18,6 C 55 % 1018,0 hPa 0,0 mm 5,9 km/h (2 Bft) N-NW 336 0 min 9,4 C 18,6 C 11,3 km/h (2 Bft)
24.05.2018 00:45 18,7 C 54 % 1018,0 hPa 0,0 mm 8,1 km/h (2 Bft) N-NW 331 0 min 9,2 C 18,7 C 14,5 km/h (3 Bft)
24.05.2018 00:30 18,8 C 54 % 1018,0 hPa 0,0 mm 9,5 km/h (2 Bft) N-NW 334 0 min 9,3 C 18,8 C 16,1 km/h (3 Bft)
24.05.2018 00:15 18,9 C 53 % 1018,2 hPa 0,0 mm 4,8 km/h (1 Bft) N-NW 334 0 min 9,1 C 18,9 C 12,9 km/h (3 Bft)
24.05.2018 00:00 18,9 C 53 % 1018,1 hPa 0,0 mm 7,3 km/h (2 Bft) N-NW 342 0 min 9,1 C 18,9 C 11,3 km/h (2 Bft)
23.05.2018 23:45 19,6 C 51 % 1018,2 hPa 0,0 mm 6,4 km/h (2 Bft) N-NW 335 0 min 9,2 C 19,6 C 12,9 km/h (3 Bft)
23.05.2018 23:30 20,3 C 47 % 1018,2 hPa 0,0 mm 6,4 km/h (2 Bft) NO 42 0 min 8,6 C 20,3 C 14,5 km/h (3 Bft)
23.05.2018 23:15 20,3 C 47 % 1018,2 hPa 0,0 mm 6,4 km/h (2 Bft) NO 42 0 min 8,6 C 20,3 C 14,5 km/h (3 Bft)
23.05.2018 23:00 20,2 C 48 % 1018,2 hPa 0,0 mm 4,8 km/h (1 Bft) NO 42 0 min 8,8 C 20,2 C 14,5 km/h (3 Bft)
23.05.2018 22:59 20,2 C 48 % 1018,2 hPa 0,0 mm 5,1 km/h (1 Bft) O-NO 67 0 min 8,8 C 20,2 C 14,5 km/h (3 Bft)
23.05.2018 22:45 20,3 C 48 % 1018,3 hPa 0,0 mm 7,8 km/h (2 Bft) NO 38 0 min 8,9 C 20,3 C 12,9 km/h (3 Bft)
23.05.2018 22:30 20,4 C 48 % 1018,2 hPa 0,0 mm 7,1 km/h (2 Bft) N-NO 31 0 min 9,0 C 20,4 C 12,9 km/h (3 Bft)
23.05.2018 22:15 20,6 C 47 % 1018,2 hPa 0,0 mm 7,7 km/h (2 Bft) O 79 0 min 8,9 C 20,6 C 14,5 km/h (3 Bft)
23.05.2018 21:59 20,8 C 47 % 1018,0 hPa 0,0 mm 7,5 km/h (2 Bft) O-NO 73 0 min 9,1 C 20,8 C 16,1 km/h (3 Bft)
23.05.2018 21:45 21,2 C 46 % 1017,9 hPa 0,0 mm 6,5 km/h (2 Bft) O-NO 74 0 min 9,1 C 21,2 C 12,9 km/h (3 Bft)
23.05.2018 21:30 21,5 C 46 % 1017,7 hPa 0,0 mm 7,4 km/h (2 Bft) O-NO 57 0 min 9,4 C 21,5 C 12,9 km/h (3 Bft)
23.05.2018 21:15 21,8 C 45 % 1017,6 hPa 0,0 mm 6,2 km/h (2 Bft) O-NO 59 0 min 9,3 C 21,8 C 12,9 km/h (3 Bft)
23.05.2018 20:59 22,1 C 45 % 1017,5 hPa 0,0 mm 8,2 km/h (2 Bft) O-NO 69 0 min 9,6 C 22,1 C 16,1 km/h (3 Bft)
23.05.2018 20:45 22,4 C 45 % 1017,4 hPa 0,0 mm 7,3 km/h (2 Bft) O 90 0 min 9,9 C 22,4 C 20,9 km/h (4 Bft)
23.05.2018 20:30 22,7 C 45 % 1017,3 hPa 0,0 mm 6,2 km/h (2 Bft) O 94 0 min 10,1 C 22,7 C 14,5 km/h (3 Bft)
23.05.2018 20:15 22,9 C 44 % 1017,1 hPa 0,0 mm 5,7 km/h (1 Bft) O 92 0 min 10,0 C 22,9 C 14,5 km/h (3 Bft)
23.05.2018 19:59 23,1 C 44 % 1017,0 hPa 0,0 mm 6,1 km/h (2 Bft) SO 144 0 min 10,2 C 23,1 C 14,5 km/h (3 Bft)
23.05.2018 19:45 23,3 C 44 % 1017,0 hPa 0,0 mm 6,2 km/h (2 Bft) S-SO 154 0 min 10,4 C 23,3 C 16,1 km/h (3 Bft)
23.05.2018 19:30 23,5 C 44 % 1016,9 hPa 0,0 mm 6,5 km/h (2 Bft) S 174 0 min 10,5 C 23,5 C 12,9 km/h (3 Bft)
23.05.2018 19:15 23,7 C 42 % 1016,9 hPa 0,0 mm 7,3 km/h (2 Bft) SO 134 16 min 10,0 C 23,7 C 17,7 km/h (3 Bft)
23.05.2018 18:59 23,4 C 43 % 1016,8 hPa 0,0 mm 11,0 km/h (2 Bft) SO 130 14 min 10,1 C 23,4 C 19,3 km/h (3 Bft)
23.05.2018 18:45 23,4 C 42 % 1016,9 hPa 0,0 mm 12,9 km/h (3 Bft) SO 129 15 min 9,7 C 23,4 C 22,5 km/h (4 Bft)
23.05.2018 18:30 23,7 C 42 % 1017,0 hPa 0,0 mm 8,2 km/h (2 Bft) O 101 15 min 10,0 C 23,7 C 17,7 km/h (3 Bft)
23.05.2018 18:15 23,3 C 43 % 1016,9 hPa 0,0 mm 11,9 km/h (2 Bft) O-SO 113 0 min 10,0 C 23,3 C 20,9 km/h (4 Bft)
23.05.2018 17:59 23,3 C 42 % 1017,0 hPa 0,0 mm 11,8 km/h (2 Bft) O-SO 121 0 min 9,7 C 23,3 C 24,1 km/h (4 Bft)
23.05.2018 17:45 23,2 C 42 % 1017,0 hPa 0,0 mm 14,8 km/h (3 Bft) SO 144 0 min 9,6 C 23,2 C 29,0 km/h (5 Bft)
23.05.2018 17:30 23,5 C 42 % 1017,0 hPa 0,0 mm 12,6 km/h (3 Bft) O 90 0 min 9,8 C 23,5 C 24,1 km/h (4 Bft)
23.05.2018 17:15 23,6 C 41 % 1017,0 hPa 0,0 mm 13,4 km/h (3 Bft) SO 138 0 min 9,6 C 23,6 C 29,0 km/h (5 Bft)
23.05.2018 16:59 23,7 C 40 % 1016,9 hPa 0,0 mm 15,3 km/h (3 Bft) SO 146 0 min 9,3 C 23,7 C 30,6 km/h (5 Bft)
23.05.2018 16:45 24,0 C 38 % 1016,8 hPa 0,0 mm 13,4 km/h (3 Bft) SO 124 0 min 8,8 C 24,0 C 24,1 km/h (4 Bft)
23.05.2018 16:30 24,3 C 35 % 1016,8 hPa 0,0 mm 12,0 km/h (2 Bft) S-SO 155 0 min 7,8 C 24,3 C 27,4 km/h (4 Bft)
23.05.2018 16:15 24,6 C 34 % 1016,8 hPa 0,0 mm 10,8 km/h (2 Bft) SO 136 16 min 7,7 C 24,6 C 22,5 km/h (4 Bft)
23.05.2018 15:59 24,4 C 35 % 1016,8 hPa 0,0 mm 10,8 km/h (2 Bft) S-SO 148 14 min 7,9 C 24,4 C 25,7 km/h (4 Bft)
23.05.2018 15:45 24,4 C 35 % 1016,9 hPa 0,0 mm 9,3 km/h (2 Bft) S 174 15 min 7,9 C 24,4 C 17,7 km/h (3 Bft)
23.05.2018 15:30 23,8 C 37 % 1016,9 hPa 0,0 mm 5,6 km/h (1 Bft) SO 137 15 min 8,2 C 23,8 C 16,1 km/h (3 Bft)
23.05.2018 15:15 23,4 C 37 % 1017,1 hPa 0,0 mm 6,8 km/h (2 Bft) S 186 16 min 7,9 C 23,4 C 24,1 km/h (4 Bft)
23.05.2018 14:59 23,2 C 38 % 1017,1 hPa 0,0 mm 7,8 km/h (2 Bft) S-SO 163 14 min 8,1 C 23,2 C 20,9 km/h (4 Bft)
23.05.2018 14:45 23,3 C 37 % 1017,2 hPa 0,0 mm 7,7 km/h (2 Bft) S 182 0 min 7,8 C 23,3 C 19,3 km/h (3 Bft)
23.05.2018 14:30 23,3 C 35 % 1017,2 hPa 0,0 mm 8,0 km/h (2 Bft) S-SO 153 0 min 7,0 C 23,3 C 22,5 km/h (4 Bft)
23.05.2018 14:15 23,4 C 34 % 1017,2 hPa 0,0 mm 9,0 km/h (2 Bft) S-SW 195 0 min 6,6 C 23,4 C 20,9 km/h (4 Bft)
23.05.2018 13:59 23,6 C 34 % 1017,3 hPa 0,0 mm 8,9 km/h (2 Bft) S-SW 195 0 min 6,8 C 23,6 C 22,5 km/h (4 Bft)
23.05.2018 13:45 23,4 C 34 % 1017,3 hPa 0,0 mm 12,2 km/h (2 Bft) W-SW 240 15 min 6,6 C 23,4 C 29,0 km/h (5 Bft)
23.05.2018 13:30 23,8 C 35 % 1017,3 hPa 0,0 mm 12,0 km/h (2 Bft) S 182 15 min 7,4 C 23,8 C 25,7 km/h (4 Bft)
23.05.2018 13:15 23,9 C 35 % 1017,3 hPa 0,0 mm 12,1 km/h (2 Bft) SW 217 16 min 7,5 C 23,9 C 24,1 km/h (4 Bft)
23.05.2018 12:59 23,8 C 36 % 1017,1 hPa 0,0 mm 11,6 km/h (2 Bft) SW 220 14 min 7,8 C 23,8 C 29,0 km/h (5 Bft)
23.05.2018 12:45 23,6 C 36 % 1017,2 hPa 0,0 mm 11,3 km/h (2 Bft) SW 214 15 min 7,6 C 23,6 C 27,4 km/h (4 Bft)
23.05.2018 12:30 23,4 C 37 % 1017,2 hPa 0,0 mm 14,2 km/h (3 Bft) SW 231 15 min 7,9 C 23,4 C 24,1 km/h (4 Bft)
23.05.2018 12:15 23,3 C 37 % 1017,0 hPa 0,0 mm 17,4 km/h (3 Bft) SW 236 16 min 7,8 C 23,3 C 33,8 km/h (5 Bft)
23.05.2018 11:59 23,6 C 38 % 1017,0 hPa 0,0 mm 12,3 km/h (3 Bft) S-SW 195 14 min 8,4 C 23,6 C 27,4 km/h (4 Bft)
23.05.2018 11:45 22,8 C 43 % 1017,0 hPa 0,0 mm 14,7 km/h (3 Bft) S-SW 195 15 min 9,6 C 22,8 C 32,2 km/h (5 Bft)
23.05.2018 11:30 22,4 C 42 % 1016,8 hPa 0,0 mm 15,5 km/h (3 Bft) S-SW 195 15 min 8,9 C 22,4 C 33,8 km/h (5 Bft)
23.05.2018 11:15 22,3 C 45 % 1016,7 hPa 0,0 mm 14,8 km/h (3 Bft) S-SW 195 16 min 9,8 C 22,3 C 35,4 km/h (5 Bft)
23.05.2018 10:59 22,0 C 48 % 1016,6 hPa 0,0 mm 15,6 km/h (3 Bft) SW 224 14 min 10,5 C 22,0 C 37,0 km/h (5 Bft)
23.05.2018 10:45 21,6 C 51 % 1016,6 hPa 0,0 mm 10,7 km/h (2 Bft) SW 231 15 min 11,0 C 21,6 C 27,4 km/h (4 Bft)
23.05.2018 10:30 21,6 C 50 % 1016,6 hPa 0,0 mm 8,5 km/h (2 Bft) S 191 15 min 10,7 C 21,6 C 24,1 km/h (4 Bft)
23.05.2018 10:15 21,1 C 52 % 1016,5 hPa 0,0 mm 9,6 km/h (2 Bft) S-SW 211 16 min 10,9 C 21,1 C 27,4 km/h (4 Bft)
23.05.2018 09:59 20,3 C 52 % 1016,4 hPa 0,0 mm 7,3 km/h (2 Bft) S-SW 200 14 min 10,1 C 20,3 C 24,1 km/h (4 Bft)
23.05.2018 09:45 20,1 C 52 % 1016,4 hPa 0,0 mm 7,8 km/h (2 Bft) S-SW 195 15 min 9,9 C 20,1 C 24,1 km/h (4 Bft)
23.05.2018 09:30 19,9 C 53 % 1016,5 hPa 0,0 mm 5,3 km/h (1 Bft) S-SW 213 15 min 10,0 C 19,9 C 17,7 km/h (3 Bft)
23.05.2018 09:15 19,8 C 54 % 1016,4 hPa 0,0 mm 2,8 km/h (1 Bft) W-SW 251 16 min 10,2 C 19,8 C 12,9 km/h (3 Bft)
23.05.2018 08:59 19,2 C 61 % 1016,3 hPa 0,0 mm 0,8 km/h (0 Bft) NO 49 14 min 11,5 C 19,2 C 6,4 km/h (2 Bft)
23.05.2018 08:45 17,9 C 65 % 1016,1 hPa 0,0 mm 3,0 km/h (1 Bft) NO 36 15 min 11,2 C 17,9 C 8,0 km/h (2 Bft)
23.05.2018 08:30 17,3 C 67 % 1016,0 hPa 0,0 mm 3,1 km/h (1 Bft) NO 38 0 min 11,1 C 17,3 C 6,4 km/h (2 Bft)
23.05.2018 08:15 16,8 C 68 % 1016,0 hPa 0,0 mm 2,7 km/h (1 Bft) O-NO 61 0 min 10,9 C 16,8 C 6,4 km/h (2 Bft)
_ Min-Zeit 08:15 13:45 08:15 - 06:15 - - - 13:45 08:15 06:15
Minimum _ 16,8 C 34 % 1016,0 hPa - 0,0 km/h (0 Bft) - - - 6,6 C 16,8 C 1,6 km/h (1 Bft)
_ Max-Zeit 16:30 08:15 22:45 08:15 12:15 - - 09:15 08:59 16:15 10:59
Maximum _ 24,7 C 68 % 1018,3 hPa 0,0 mm 17,4 km/h
SW (3 Bft)
- - 16 min 11,5 C 24,6 C 37,0 km/h
SW (5 Bft)
Durchschnitt _ 20,6 C 50 % 1017,3 hPa #0,0 mm 7,2 km/h (2 Bft) N-NW - #0 min. 9,3 C 20,6 C 16,7 km/h (3 Bft)